sensor_id;sensor_type;location;lat;lon;timestamp;P1;durP1;ratioP1;P2;durP2;ratioP2
5357;SDS011;2702;51.014;7.170;2022-12-05T00:01:27;15.03;;;11.40;;
5357;SDS011;2702;51.014;7.170;2022-12-05T00:03:59;14.47;;;11.50;;
5357;SDS011;2702;51.014;7.170;2022-12-05T00:06:28;13.70;;;11.00;;
5357;SDS011;2702;51.014;7.170;2022-12-05T00:08:55;14.43;;;11.23;;
5357;SDS011;2702;51.014;7.170;2022-12-05T00:11:26;17.63;;;12.17;;
5357;SDS011;2702;51.014;7.170;2022-12-05T00:13:57;17.83;;;12.63;;
5357;SDS011;2702;51.014;7.170;2022-12-05T00:16:25;15.70;;;11.30;;
5357;SDS011;2702;51.014;7.170;2022-12-05T00:18:52;16.00;;;12.10;;
5357;SDS011;2702;51.014;7.170;2022-12-05T00:21:21;15.00;;;12.17;;
5357;SDS011;2702;51.014;7.170;2022-12-05T00:23:50;15.80;;;12.27;;
5357;SDS011;2702;51.014;7.170;2022-12-05T00:26:17;15.07;;;10.50;;
5357;SDS011;2702;51.014;7.170;2022-12-05T00:28:44;16.20;;;11.57;;
5357;SDS011;2702;51.014;7.170;2022-12-05T00:31:10;15.70;;;11.67;;
5357;SDS011;2702;51.014;7.170;2022-12-05T00:33:41;16.30;;;12.77;;
5357;SDS011;2702;51.014;7.170;2022-12-05T00:36:10;16.13;;;12.10;;
5357;SDS011;2702;51.014;7.170;2022-12-05T00:38:37;16.23;;;11.50;;
5357;SDS011;2702;51.014;7.170;2022-12-05T00:41:04;13.70;;;10.80;;
5357;SDS011;2702;51.014;7.170;2022-12-05T00:43:31;13.27;;;11.20;;
5357;SDS011;2702;51.014;7.170;2022-12-05T00:46:01;15.83;;;12.50;;
5357;SDS011;2702;51.014;7.170;2022-12-05T00:48:28;17.67;;;12.43;;
5357;SDS011;2702;51.014;7.170;2022-12-05T00:51:06;16.20;;;12.07;;
5357;SDS011;2702;51.014;7.170;2022-12-05T00:53:32;15.00;;;11.80;;
5357;SDS011;2702;51.014;7.170;2022-12-05T00:56:05;16.07;;;12.47;;
5357;SDS011;2702;51.014;7.170;2022-12-05T00:58:35;14.63;;;11.93;;
5357;SDS011;2702;51.014;7.170;2022-12-05T01:01:09;18.00;;;13.00;;
5357;SDS011;2702;51.014;7.170;2022-12-05T01:03:36;13.83;;;10.67;;
5357;SDS011;2702;51.014;7.170;2022-12-05T01:06:03;15.57;;;11.63;;
5357;SDS011;2702;51.014;7.170;2022-12-05T01:08:30;16.23;;;11.37;;
5357;SDS011;2702;51.014;7.170;2022-12-05T01:10:57;15.87;;;12.03;;
5357;SDS011;2702;51.014;7.170;2022-12-05T01:13:24;19.57;;;14.27;;
5357;SDS011;2702;51.014;7.170;2022-12-05T01:15:51;21.27;;;14.40;;
5357;SDS011;2702;51.014;7.170;2022-12-05T01:18:17;21.57;;;15.00;;
5357;SDS011;2702;51.014;7.170;2022-12-05T01:20:44;21.20;;;15.07;;
5357;SDS011;2702;51.014;7.170;2022-12-05T01:23:10;21.08;;;15.68;;
5357;SDS011;2702;51.014;7.170;2022-12-05T01:25:43;21.30;;;15.57;;
5357;SDS011;2702;51.014;7.170;2022-12-05T01:28:11;24.15;;;15.63;;
5357;SDS011;2702;51.014;7.170;2022-12-05T01:30:38;27.95;;;15.55;;
5357;SDS011;2702;51.014;7.170;2022-12-05T01:33:05;23.77;;;15.47;;
5357;SDS011;2702;51.014;7.170;2022-12-05T01:35:32;20.37;;;14.40;;
5357;SDS011;2702;51.014;7.170;2022-12-05T01:37:59;23.47;;;16.03;;
5357;SDS011;2702;51.014;7.170;2022-12-05T01:40:26;27.40;;;15.90;;
5357;SDS011;2702;51.014;7.170;2022-12-05T01:42:52;21.83;;;15.03;;
5357;SDS011;2702;51.014;7.170;2022-12-05T01:45:25;23.85;;;17.00;;
5357;SDS011;2702;51.014;7.170;2022-12-05T01:48:00;20.80;;;15.07;;
5357;SDS011;2702;51.014;7.170;2022-12-05T01:50:29;23.35;;;14.68;;
5357;SDS011;2702;51.014;7.170;2022-12-05T01:52:55;22.08;;;15.27;;
5357;SDS011;2702;51.014;7.170;2022-12-05T01:55:21;25.33;;;15.97;;
5357;SDS011;2702;51.014;7.170;2022-12-05T01:57:47;24.00;;;15.90;;
5357;SDS011;2702;51.014;7.170;2022-12-05T02:00:15;25.73;;;15.90;;
5357;SDS011;2702;51.014;7.170;2022-12-05T02:02:45;28.05;;;16.10;;
5357;SDS011;2702;51.014;7.170;2022-12-05T02:05:20;25.03;;;16.67;;
5357;SDS011;2702;51.014;7.170;2022-12-05T02:07:52;25.70;;;16.10;;
5357;SDS011;2702;51.014;7.170;2022-12-05T02:10:19;23.80;;;15.90;;
5357;SDS011;2702;51.014;7.170;2022-12-05T02:12:45;26.50;;;16.10;;
5357;SDS011;2702;51.014;7.170;2022-12-05T02:15:33;26.40;;;16.10;;
5357;SDS011;2702;51.014;7.170;2022-12-05T02:23:25;19.85;;;14.40;;
5357;SDS011;2702;51.014;7.170;2022-12-05T02:32:03;26.17;;;15.55;;
5357;SDS011;2702;51.014;7.170;2022-12-05T02:34:37;21.55;;;15.57;;
5357;SDS011;2702;51.014;7.170;2022-12-05T02:37:19;24.02;;;14.77;;
5357;SDS011;2702;51.014;7.170;2022-12-05T02:42:51;20.75;;;13.75;;
5357;SDS011;2702;51.014;7.170;2022-12-05T02:45:18;21.02;;;13.55;;
5357;SDS011;2702;51.014;7.170;2022-12-05T02:47:49;20.60;;;14.20;;
5357;SDS011;2702;51.014;7.170;2022-12-05T02:50:21;21.27;;;14.95;;
5357;SDS011;2702;51.014;7.170;2022-12-05T02:52:51;18.90;;;13.80;;
5357;SDS011;2702;51.014;7.170;2022-12-05T02:55:21;22.10;;;14.70;;
5357;SDS011;2702;51.014;7.170;2022-12-05T02:57:51;19.80;;;14.70;;
5357;SDS011;2702;51.014;7.170;2022-12-05T03:00:21;20.40;;;14.10;;
5357;SDS011;2702;51.014;7.170;2022-12-05T03:02:47;20.87;;;13.80;;
5357;SDS011;2702;51.014;7.170;2022-12-05T03:05:38;21.55;;;14.00;;
5357;SDS011;2702;51.014;7.170;2022-12-05T03:08:10;21.15;;;15.25;;
5357;SDS011;2702;51.014;7.170;2022-12-05T03:10:40;21.30;;;13.53;;
5357;SDS011;2702;51.014;7.170;2022-12-05T03:13:10;20.73;;;14.75;;
5357;SDS011;2702;51.014;7.170;2022-12-05T03:15:44;19.25;;;13.20;;
5357;SDS011;2702;51.014;7.170;2022-12-05T03:18:15;20.30;;;14.65;;
5357;SDS011;2702;51.014;7.170;2022-12-05T03:20:49;21.23;;;13.88;;
5357;SDS011;2702;51.014;7.170;2022-12-05T03:23:24;19.23;;;13.52;;
5357;SDS011;2702;51.014;7.170;2022-12-05T03:29:08;21.15;;;15.07;;
5357;SDS011;2702;51.014;7.170;2022-12-05T03:34:52;19.50;;;13.98;;
5357;SDS011;2702;51.014;7.170;2022-12-05T03:37:48;20.88;;;13.98;;
5357;SDS011;2702;51.014;7.170;2022-12-05T03:42:56;18.48;;;13.35;;
5357;SDS011;2702;51.014;7.170;2022-12-05T03:45:34;19.30;;;13.23;;
5357;SDS011;2702;51.014;7.170;2022-12-05T03:48:16;18.83;;;12.65;;
5357;SDS011;2702;51.014;7.170;2022-12-05T03:50:48;20.02;;;13.45;;
5357;SDS011;2702;51.014;7.170;2022-12-05T03:53:28;19.42;;;12.60;;
5357;SDS011;2702;51.014;7.170;2022-12-05T03:56:01;18.60;;;12.85;;
5357;SDS011;2702;51.014;7.170;2022-12-05T03:58:40;17.20;;;11.77;;
5357;SDS011;2702;51.014;7.170;2022-12-05T04:01:10;17.58;;;12.45;;
5357;SDS011;2702;51.014;7.170;2022-12-05T04:03:48;16.30;;;13.27;;
5357;SDS011;2702;51.014;7.170;2022-12-05T04:08:50;18.73;;;12.43;;
5357;SDS011;2702;51.014;7.170;2022-12-05T04:11:21;16.98;;;12.77;;
5357;SDS011;2702;51.014;7.170;2022-12-05T04:13:51;18.40;;;13.10;;
5357;SDS011;2702;51.014;7.170;2022-12-05T04:16:21;17.67;;;13.35;;
5357;SDS011;2702;51.014;7.170;2022-12-05T04:19:25;15.25;;;11.68;;
5357;SDS011;2702;51.014;7.170;2022-12-05T04:22:19;16.92;;;11.85;;
5357;SDS011;2702;51.014;7.170;2022-12-05T04:24:46;14.50;;;11.63;;
5357;SDS011;2702;51.014;7.170;2022-12-05T04:32:31;15.33;;;12.10;;
5357;SDS011;2702;51.014;7.170;2022-12-05T04:35:06;16.40;;;11.93;;
5357;SDS011;2702;51.014;7.170;2022-12-05T04:37:39;19.35;;;12.50;;
5357;SDS011;2702;51.014;7.170;2022-12-05T04:40:10;16.38;;;12.05;;
5357;SDS011;2702;51.014;7.170;2022-12-05T04:42:41;15.35;;;11.38;;
5357;SDS011;2702;51.014;7.170;2022-12-05T04:45:10;21.13;;;12.35;;
5357;SDS011;2702;51.014;7.170;2022-12-05T04:47:39;15.35;;;11.90;;
5357;SDS011;2702;51.014;7.170;2022-12-05T04:50:10;14.90;;;11.90;;
5357;SDS011;2702;51.014;7.170;2022-12-05T04:52:37;13.70;;;10.57;;
5357;SDS011;2702;51.014;7.170;2022-12-05T04:55:07;15.43;;;11.63;;
5357;SDS011;2702;51.014;7.170;2022-12-05T04:57:39;15.60;;;11.20;;
5357;SDS011;2702;51.014;7.170;2022-12-05T05:00:26;14.60;;;11.20;;
5357;SDS011;2702;51.014;7.170;2022-12-05T05:02:55;15.90;;;11.80;;
5357;SDS011;2702;51.014;7.170;2022-12-05T05:05:44;14.88;;;11.40;;
5357;SDS011;2702;51.014;7.170;2022-12-05T05:08:17;13.40;;;10.23;;
5357;SDS011;2702;51.014;7.170;2022-12-05T05:10:48;13.63;;;10.77;;
5357;SDS011;2702;51.014;7.170;2022-12-05T05:13:35;14.17;;;10.97;;
5357;SDS011;2702;51.014;7.170;2022-12-05T05:16:01;13.33;;;11.10;;
5357;SDS011;2702;51.014;7.170;2022-12-05T05:18:27;11.60;;;10.40;;
5357;SDS011;2702;51.014;7.170;2022-12-05T05:20:53;14.70;;;11.87;;
5357;SDS011;2702;51.014;7.170;2022-12-05T05:23:19;11.90;;;9.60;;
5357;SDS011;2702;51.014;7.170;2022-12-05T05:25:45;16.90;;;12.90;;
5357;SDS011;2702;51.014;7.170;2022-12-05T05:28:19;15.77;;;12.00;;
5357;SDS011;2702;51.014;7.170;2022-12-05T05:30:46;14.20;;;11.20;;
5357;SDS011;2702;51.014;7.170;2022-12-05T05:33:12;14.60;;;12.17;;
5357;SDS011;2702;51.014;7.170;2022-12-05T05:35:38;14.73;;;11.63;;
5357;SDS011;2702;51.014;7.170;2022-12-05T05:38:04;16.90;;;12.03;;
5357;SDS011;2702;51.014;7.170;2022-12-05T05:40:30;13.13;;;10.70;;
5357;SDS011;2702;51.014;7.170;2022-12-05T05:42:58;12.63;;;10.20;;
5357;SDS011;2702;51.014;7.170;2022-12-05T05:45:24;13.03;;;10.93;;
5357;SDS011;2702;51.014;7.170;2022-12-05T05:47:50;14.03;;;11.47;;
5357;SDS011;2702;51.014;7.170;2022-12-05T05:50:16;14.23;;;10.80;;
5357;SDS011;2702;51.014;7.170;2022-12-05T05:52:42;13.02;;;10.05;;
5357;SDS011;2702;51.014;7.170;2022-12-05T05:55:08;13.50;;;10.93;;
5357;SDS011;2702;51.014;7.170;2022-12-05T05:57:35;11.00;;;9.63;;
5357;SDS011;2702;51.014;7.170;2022-12-05T06:00:03;13.70;;;10.80;;
5357;SDS011;2702;51.014;7.170;2022-12-05T06:02:31;11.00;;;9.17;;
5357;SDS011;2702;51.014;7.170;2022-12-05T06:04:57;13.07;;;10.23;;
5357;SDS011;2702;51.014;7.170;2022-12-05T06:07:23;11.90;;;9.37;;
5357;SDS011;2702;51.014;7.170;2022-12-05T06:09:49;15.10;;;12.10;;
5357;SDS011;2702;51.014;7.170;2022-12-05T06:12:15;14.00;;;9.97;;
5357;SDS011;2702;51.014;7.170;2022-12-05T06:14:41;13.20;;;10.57;;
5357;SDS011;2702;51.014;7.170;2022-12-05T06:17:07;13.10;;;11.07;;
5357;SDS011;2702;51.014;7.170;2022-12-05T06:19:33;13.97;;;10.13;;
5357;SDS011;2702;51.014;7.170;2022-12-05T06:21:58;12.40;;;10.20;;
5357;SDS011;2702;51.014;7.170;2022-12-05T06:24:24;11.53;;;9.23;;
5357;SDS011;2702;51.014;7.170;2022-12-05T06:26:50;10.60;;;9.07;;
5357;SDS011;2702;51.014;7.170;2022-12-05T06:29:16;10.13;;;8.20;;
5357;SDS011;2702;51.014;7.170;2022-12-05T06:31:42;11.30;;;9.40;;
5357;SDS011;2702;51.014;7.170;2022-12-05T06:34:08;9.77;;;8.87;;
5357;SDS011;2702;51.014;7.170;2022-12-05T06:36:33;9.30;;;8.40;;
5357;SDS011;2702;51.014;7.170;2022-12-05T06:38:59;9.77;;;8.60;;
5357;SDS011;2702;51.014;7.170;2022-12-05T06:41:25;9.40;;;8.50;;
5357;SDS011;2702;51.014;7.170;2022-12-05T06:43:52;9.50;;;8.55;;
5357;SDS011;2702;51.014;7.170;2022-12-05T06:46:22;10.55;;;8.55;;
5357;SDS011;2702;51.014;7.170;2022-12-05T06:48:53;9.10;;;8.20;;
5357;SDS011;2702;51.014;7.170;2022-12-05T06:51:22;8.17;;;7.37;;
5357;SDS011;2702;51.014;7.170;2022-12-05T06:53:48;9.50;;;8.60;;
5357;SDS011;2702;51.014;7.170;2022-12-05T06:56:15;9.50;;;8.60;;
5357;SDS011;2702;51.014;7.170;2022-12-05T06:58:44;7.63;;;6.87;;
5357;SDS011;2702;51.014;7.170;2022-12-05T07:01:16;9.53;;;8.53;;
5357;SDS011;2702;51.014;7.170;2022-12-05T07:04:09;10.03;;;8.30;;
5357;SDS011;2702;51.014;7.170;2022-12-05T07:06:37;10.70;;;8.20;;
5357;SDS011;2702;51.014;7.170;2022-12-05T07:09:04;8.37;;;7.50;;
5357;SDS011;2702;51.014;7.170;2022-12-05T07:11:30;9.53;;;8.57;;
5357;SDS011;2702;51.014;7.170;2022-12-05T07:13:56;8.83;;;7.87;;
5357;SDS011;2702;51.014;7.170;2022-12-05T07:16:22;8.30;;;7.40;;
5357;SDS011;2702;51.014;7.170;2022-12-05T07:18:48;9.10;;;8.20;;
5357;SDS011;2702;51.014;7.170;2022-12-05T07:21:15;8.70;;;7.33;;
5357;SDS011;2702;51.014;7.170;2022-12-05T07:23:42;8.37;;;7.47;;
5357;SDS011;2702;51.014;7.170;2022-12-05T07:26:10;8.97;;;8.07;;
5357;SDS011;2702;51.014;7.170;2022-12-05T07:28:38;7.80;;;7.10;;
5357;SDS011;2702;51.014;7.170;2022-12-05T07:31:07;12.03;;;8.23;;
5357;SDS011;2702;51.014;7.170;2022-12-05T07:33:35;16.07;;;8.20;;
5357;SDS011;2702;51.014;7.170;2022-12-05T07:36:03;12.73;;;7.67;;
5357;SDS011;2702;51.014;7.170;2022-12-05T07:38:34;9.77;;;8.20;;
5357;SDS011;2702;51.014;7.170;2022-12-05T07:41:04;9.13;;;8.23;;
5357;SDS011;2702;51.014;7.170;2022-12-05T07:43:31;9.17;;;8.27;;
5357;SDS011;2702;51.014;7.170;2022-12-05T07:46:05;8.60;;;7.73;;
5357;SDS011;2702;51.014;7.170;2022-12-05T07:48:31;7.90;;;7.10;;
5357;SDS011;2702;51.014;7.170;2022-12-05T07:50:58;7.73;;;7.03;;
5357;SDS011;2702;51.014;7.170;2022-12-05T07:53:31;7.87;;;7.07;;
5357;SDS011;2702;51.014;7.170;2022-12-05T07:55:58;8.60;;;7.80;;
5357;SDS011;2702;51.014;7.170;2022-12-05T07:58:25;8.83;;;7.93;;
5357;SDS011;2702;51.014;7.170;2022-12-05T08:00:52;9.10;;;7.97;;
5357;SDS011;2702;51.014;7.170;2022-12-05T08:03:18;8.53;;;7.70;;
5357;SDS011;2702;51.014;7.170;2022-12-05T08:05:44;10.60;;;7.73;;
5357;SDS011;2702;51.014;7.170;2022-12-05T08:08:10;10.03;;;8.47;;
5357;SDS011;2702;51.014;7.170;2022-12-05T08:10:36;8.70;;;7.20;;
5357;SDS011;2702;51.014;7.170;2022-12-05T08:13:02;8.27;;;7.47;;
5357;SDS011;2702;51.014;7.170;2022-12-05T08:15:27;9.53;;;8.07;;
5357;SDS011;2702;51.014;7.170;2022-12-05T08:17:53;15.00;;;8.70;;
5357;SDS011;2702;51.014;7.170;2022-12-05T08:20:19;12.10;;;8.67;;
5357;SDS011;2702;51.014;7.170;2022-12-05T08:22:45;14.20;;;8.53;;
5357;SDS011;2702;51.014;7.170;2022-12-05T08:25:11;9.10;;;7.70;;
5357;SDS011;2702;51.014;7.170;2022-12-05T08:27:37;10.87;;;8.50;;
5357;SDS011;2702;51.014;7.170;2022-12-05T08:30:03;17.73;;;9.03;;
5357;SDS011;2702;51.014;7.170;2022-12-05T08:32:30;11.83;;;8.50;;
5357;SDS011;2702;51.014;7.170;2022-12-05T08:34:56;13.23;;;7.73;;
5357;SDS011;2702;51.014;7.170;2022-12-05T08:37:22;27.63;;;10.00;;
5357;SDS011;2702;51.014;7.170;2022-12-05T08:39:47;10.13;;;8.67;;
5357;SDS011;2702;51.014;7.170;2022-12-05T08:42:13;22.63;;;9.80;;
5357;SDS011;2702;51.014;7.170;2022-12-05T08:44:39;10.00;;;8.47;;
5357;SDS011;2702;51.014;7.170;2022-12-05T08:47:05;12.53;;;9.53;;
5357;SDS011;2702;51.014;7.170;2022-12-05T08:49:31;10.50;;;8.77;;
5357;SDS011;2702;51.014;7.170;2022-12-05T08:51:56;10.97;;;9.40;;
5357;SDS011;2702;51.014;7.170;2022-12-05T08:54:22;22.57;;;10.73;;
5357;SDS011;2702;51.014;7.170;2022-12-05T08:56:51;12.37;;;10.97;;
5357;SDS011;2702;51.014;7.170;2022-12-05T08:59:17;12.70;;;10.90;;
5357;SDS011;2702;51.014;7.170;2022-12-05T09:01:44;15.35;;;10.05;;
5357;SDS011;2702;51.014;7.170;2022-12-05T09:04:10;14.13;;;10.80;;
5357;SDS011;2702;51.014;7.170;2022-12-05T09:06:36;10.55;;;9.45;;
5357;SDS011;2702;51.014;7.170;2022-12-05T09:09:04;12.70;;;10.00;;
5357;SDS011;2702;51.014;7.170;2022-12-05T09:11:33;12.63;;;9.80;;
5357;SDS011;2702;51.014;7.170;2022-12-05T09:14:01;12.80;;;10.43;;
5357;SDS011;2702;51.014;7.170;2022-12-05T09:16:32;15.00;;;10.10;;
5357;SDS011;2702;51.014;7.170;2022-12-05T09:18:59;13.30;;;10.47;;
5357;SDS011;2702;51.014;7.170;2022-12-05T09:21:26;13.00;;;10.30;;
5357;SDS011;2702;51.014;7.170;2022-12-05T09:23:54;13.20;;;10.90;;
5357;SDS011;2702;51.014;7.170;2022-12-05T09:26:21;16.53;;;11.00;;
5357;SDS011;2702;51.014;7.170;2022-12-05T09:28:48;15.57;;;10.40;;
5357;SDS011;2702;51.014;7.170;2022-12-05T09:31:16;14.07;;;11.10;;
5357;SDS011;2702;51.014;7.170;2022-12-05T09:33:44;15.77;;;11.60;;
5357;SDS011;2702;51.014;7.170;2022-12-05T09:36:18;15.17;;;11.07;;
5357;SDS011;2702;51.014;7.170;2022-12-05T09:38:46;16.23;;;12.27;;
5357;SDS011;2702;51.014;7.170;2022-12-05T09:55:47;13.97;;;10.37;;
5357;SDS011;2702;51.014;7.170;2022-12-05T10:17:51;25.00;;;21.00;;
5357;SDS011;2702;51.014;7.170;2022-12-05T10:20:34;21.53;;;17.57;;
5357;SDS011;2702;51.014;7.170;2022-12-05T10:23:22;22.80;;;15.90;;
5357;SDS011;2702;51.014;7.170;2022-12-05T10:25:54;21.20;;;11.90;;
5357;SDS011;2702;51.014;7.170;2022-12-05T10:28:33;19.87;;;15.23;;
5357;SDS011;2702;51.014;7.170;2022-12-05T10:31:07;16.50;;;12.60;;
5357;SDS011;2702;51.014;7.170;2022-12-05T10:33:39;14.60;;;11.97;;
5357;SDS011;2702;51.014;7.170;2022-12-05T10:36:22;17.03;;;12.10;;
5357;SDS011;2702;51.014;7.170;2022-12-05T10:38:49;18.60;;;12.23;;
5357;SDS011;2702;51.014;7.170;2022-12-05T10:41:15;19.20;;;12.97;;
5357;SDS011;2702;51.014;7.170;2022-12-05T10:43:42;16.50;;;11.47;;
5357;SDS011;2702;51.014;7.170;2022-12-05T10:46:10;20.00;;;13.70;;
5357;SDS011;2702;51.014;7.170;2022-12-05T10:48:38;18.60;;;12.80;;
5357;SDS011;2702;51.014;7.170;2022-12-05T10:51:05;20.17;;;12.30;;
5357;SDS011;2702;51.014;7.170;2022-12-05T10:53:47;17.13;;;12.33;;
5357;SDS011;2702;51.014;7.170;2022-12-05T10:59:04;21.33;;;13.50;;
5357;SDS011;2702;51.014;7.170;2022-12-05T11:01:35;19.93;;;13.60;;
5357;SDS011;2702;51.014;7.170;2022-12-05T11:04:24;17.70;;;13.30;;
5357;SDS011;2702;51.014;7.170;2022-12-05T11:09:30;19.20;;;13.40;;
5357;SDS011;2702;51.014;7.170;2022-12-05T11:12:13;23.13;;;14.40;;
5357;SDS011;2702;51.014;7.170;2022-12-05T11:14:55;22.20;;;13.37;;
5357;SDS011;2702;51.014;7.170;2022-12-05T11:17:26;26.37;;;15.10;;
5357;SDS011;2702;51.014;7.170;2022-12-05T11:20:01;25.87;;;14.77;;
5357;SDS011;2702;51.014;7.170;2022-12-05T11:22:51;22.20;;;14.33;;
5357;SDS011;2702;51.014;7.170;2022-12-05T11:25:34;36.33;;;15.27;;
5357;SDS011;2702;51.014;7.170;2022-12-05T11:33:36;29.37;;;15.23;;
5357;SDS011;2702;51.014;7.170;2022-12-05T11:38:35;24.30;;;15.30;;
5357;SDS011;2702;51.014;7.170;2022-12-05T11:44:06;33.90;;;16.03;;
5357;SDS011;2702;51.014;7.170;2022-12-05T11:54:31;23.33;;;16.07;;
5357;SDS011;2702;51.014;7.170;2022-12-05T12:02:45;26.97;;;16.40;;
5357;SDS011;2702;51.014;7.170;2022-12-05T12:11:03;43.13;;;22.83;;
5357;SDS011;2702;51.014;7.170;2022-12-05T12:16:47;20.97;;;16.20;;
5357;SDS011;2702;51.014;7.170;2022-12-05T12:25:43;29.00;;;17.17;;
5357;SDS011;2702;51.014;7.170;2022-12-05T12:28:25;30.93;;;18.40;;
5357;SDS011;2702;51.014;7.170;2022-12-05T12:33:49;38.33;;;18.20;;
5357;SDS011;2702;51.014;7.170;2022-12-05T12:39:50;24.23;;;17.20;;
5357;SDS011;2702;51.014;7.170;2022-12-05T12:42:23;26.47;;;17.50;;
5357;SDS011;2702;51.014;7.170;2022-12-05T12:50:16;23.13;;;16.23;;
5357;SDS011;2702;51.014;7.170;2022-12-05T13:01:04;47.23;;;18.73;;
5357;SDS011;2702;51.014;7.170;2022-12-05T13:06:53;53.53;;;19.43;;
5357;SDS011;2702;51.014;7.170;2022-12-05T13:12:10;30.40;;;16.60;;
5357;SDS011;2702;51.014;7.170;2022-12-05T13:14:45;29.13;;;17.07;;
5357;SDS011;2702;51.014;7.170;2022-12-05T13:17:16;62.80;;;19.97;;
5357;SDS011;2702;51.014;7.170;2022-12-05T13:19:51;45.43;;;19.10;;
5357;SDS011;2702;51.014;7.170;2022-12-05T13:22:19;34.37;;;16.63;;
5357;SDS011;2702;51.014;7.170;2022-12-05T13:24:49;22.87;;;16.13;;
5357;SDS011;2702;51.014;7.170;2022-12-05T13:27:25;47.80;;;18.23;;
5357;SDS011;2702;51.014;7.170;2022-12-05T13:29:53;28.40;;;16.70;;
5357;SDS011;2702;51.014;7.170;2022-12-05T13:32:26;33.13;;;17.30;;
5357;SDS011;2702;51.014;7.170;2022-12-05T13:35:27;30.27;;;17.60;;
5357;SDS011;2702;51.014;7.170;2022-12-05T13:38:26;25.70;;;16.30;;
5357;SDS011;2702;51.014;7.170;2022-12-05T13:41:15;23.70;;;16.60;;
5357;SDS011;2702;51.014;7.170;2022-12-05T13:44:00;24.50;;;16.07;;
5357;SDS011;2702;51.014;7.170;2022-12-05T13:46:33;19.60;;;14.70;;
5357;SDS011;2702;51.014;7.170;2022-12-05T13:49:11;20.07;;;15.50;;
5357;SDS011;2702;51.014;7.170;2022-12-05T13:51:41;31.97;;;16.77;;
5357;SDS011;2702;51.014;7.170;2022-12-05T13:54:14;24.90;;;18.13;;
5357;SDS011;2702;51.014;7.170;2022-12-05T13:56:48;27.77;;;16.53;;
5357;SDS011;2702;51.014;7.170;2022-12-05T14:10:10;22.30;;;16.47;;
5357;SDS011;2702;51.014;7.170;2022-12-05T14:17:56;22.73;;;16.33;;
5357;SDS011;2702;51.014;7.170;2022-12-05T14:20:30;39.13;;;18.70;;
5357;SDS011;2702;51.014;7.170;2022-12-05T14:25:58;20.10;;;15.57;;
5357;SDS011;2702;51.014;7.170;2022-12-05T14:37:02;23.80;;;17.23;;
5357;SDS011;2702;51.014;7.170;2022-12-05T14:39:45;26.60;;;18.00;;
5357;SDS011;2702;51.014;7.170;2022-12-05T14:44:46;34.77;;;18.97;;
5357;SDS011;2702;51.014;7.170;2022-12-05T14:47:16;40.63;;;20.30;;
5357;SDS011;2702;51.014;7.170;2022-12-05T14:49:53;40.43;;;20.13;;
5357;SDS011;2702;51.014;7.170;2022-12-05T14:52:25;54.47;;;22.33;;
5357;SDS011;2702;51.014;7.170;2022-12-05T14:54:55;94.67;;;24.60;;
5357;SDS011;2702;51.014;7.170;2022-12-05T14:57:27;125.50;;;28.30;;
5357;SDS011;2702;51.014;7.170;2022-12-05T14:59:57;42.47;;;20.27;;
5357;SDS011;2702;51.014;7.170;2022-12-05T15:02:28;26.90;;;18.97;;
5357;SDS011;2702;51.014;7.170;2022-12-05T15:07:42;34.27;;;18.57;;
5357;SDS011;2702;51.014;7.170;2022-12-05T15:13:03;94.63;;;24.10;;
5357;SDS011;2702;51.014;7.170;2022-12-05T15:15:36;65.72;;;20.75;;
5357;SDS011;2702;51.014;7.170;2022-12-05T15:18:22;43.83;;;20.60;;
5357;SDS011;2702;51.014;7.170;2022-12-05T15:21:21;35.22;;;18.98;;
5357;SDS011;2702;51.014;7.170;2022-12-05T15:23:55;25.50;;;17.73;;
5357;SDS011;2702;51.014;7.170;2022-12-05T15:26:39;22.40;;;17.42;;
5357;SDS011;2702;51.014;7.170;2022-12-05T15:29:23;68.00;;;21.60;;
5357;SDS011;2702;51.014;7.170;2022-12-05T15:39:59;25.15;;;16.17;;
5357;SDS011;2702;51.014;7.170;2022-12-05T15:42:30;27.20;;;16.80;;
5357;SDS011;2702;51.014;7.170;2022-12-05T15:47:45;20.65;;;15.73;;
5357;SDS011;2702;51.014;7.170;2022-12-05T15:50:13;24.20;;;15.82;;
5357;SDS011;2702;51.014;7.170;2022-12-05T16:01:00;19.63;;;15.75;;
5357;SDS011;2702;51.014;7.170;2022-12-05T16:03:45;24.60;;;16.90;;
5357;SDS011;2702;51.014;7.170;2022-12-05T16:06:14;41.45;;;18.60;;
5357;SDS011;2702;51.014;7.170;2022-12-05T16:08:43;22.87;;;18.33;;
5357;SDS011;2702;51.014;7.170;2022-12-05T16:11:11;20.60;;;15.98;;
5357;SDS011;2702;51.014;7.170;2022-12-05T16:13:44;19.67;;;16.05;;
5357;SDS011;2702;51.014;7.170;2022-12-05T16:16:18;18.38;;;14.50;;
5357;SDS011;2702;51.014;7.170;2022-12-05T16:18:56;18.83;;;14.73;;
5357;SDS011;2702;51.014;7.170;2022-12-05T16:21:34;20.10;;;14.20;;
5357;SDS011;2702;51.014;7.170;2022-12-05T16:24:05;16.55;;;14.75;;
5357;SDS011;2702;51.014;7.170;2022-12-05T16:26:38;16.73;;;13.90;;
5357;SDS011;2702;51.014;7.170;2022-12-05T16:29:05;15.65;;;13.88;;
5357;SDS011;2702;51.014;7.170;2022-12-05T16:31:51;21.50;;;13.93;;
5357;SDS011;2702;51.014;7.170;2022-12-05T16:34:19;22.60;;;14.23;;
5357;SDS011;2702;51.014;7.170;2022-12-05T16:36:46;14.50;;;12.85;;
5357;SDS011;2702;51.014;7.170;2022-12-05T16:39:13;15.65;;;13.13;;
5357;SDS011;2702;51.014;7.170;2022-12-05T16:41:40;14.98;;;12.98;;
5357;SDS011;2702;51.014;7.170;2022-12-05T16:44:52;14.27;;;12.50;;
5357;SDS011;2702;51.014;7.170;2022-12-05T16:47:22;15.38;;;12.00;;
5357;SDS011;2702;51.014;7.170;2022-12-05T16:49:49;12.15;;;10.95;;
5357;SDS011;2702;51.014;7.170;2022-12-05T16:52:15;12.20;;;10.53;;
5357;SDS011;2702;51.014;7.170;2022-12-05T16:54:44;11.50;;;10.18;;
5357;SDS011;2702;51.014;7.170;2022-12-05T16:57:12;10.48;;;9.25;;
5357;SDS011;2702;51.014;7.170;2022-12-05T16:59:40;11.88;;;10.63;;
5357;SDS011;2702;51.014;7.170;2022-12-05T17:02:11;12.50;;;11.20;;
5357;SDS011;2702;51.014;7.170;2022-12-05T17:04:39;15.98;;;11.27;;
5357;SDS011;2702;51.014;7.170;2022-12-05T17:07:05;11.15;;;9.82;;
5357;SDS011;2702;51.014;7.170;2022-12-05T17:09:31;17.37;;;10.93;;
5357;SDS011;2702;51.014;7.170;2022-12-05T17:12:00;11.37;;;10.27;;
5357;SDS011;2702;51.014;7.170;2022-12-05T17:14:31;13.40;;;10.55;;
5357;SDS011;2702;51.014;7.170;2022-12-05T17:16:57;19.03;;;11.10;;
5357;SDS011;2702;51.014;7.170;2022-12-05T17:19:23;12.50;;;11.20;;
5357;SDS011;2702;51.014;7.170;2022-12-05T17:21:49;23.53;;;11.47;;
5357;SDS011;2702;51.014;7.170;2022-12-05T17:24:15;20.27;;;12.43;;
5357;SDS011;2702;51.014;7.170;2022-12-05T17:26:42;25.30;;;11.40;;
5357;SDS011;2702;51.014;7.170;2022-12-05T17:29:09;25.67;;;12.00;;
5357;SDS011;2702;51.014;7.170;2022-12-05T17:31:35;19.03;;;9.90;;
5357;SDS011;2702;51.014;7.170;2022-12-05T17:34:01;20.60;;;11.38;;
5357;SDS011;2702;51.014;7.170;2022-12-05T17:36:27;23.63;;;11.20;;
5357;SDS011;2702;51.014;7.170;2022-12-05T17:38:52;28.63;;;13.53;;
5357;SDS011;2702;51.014;7.170;2022-12-05T17:41:19;21.57;;;11.87;;
5357;SDS011;2702;51.014;7.170;2022-12-05T17:43:47;20.00;;;11.07;;
5357;SDS011;2702;51.014;7.170;2022-12-05T17:46:15;24.75;;;11.77;;
5357;SDS011;2702;51.014;7.170;2022-12-05T17:48:43;39.67;;;12.80;;
5357;SDS011;2702;51.014;7.170;2022-12-05T17:51:10;23.67;;;11.73;;
5357;SDS011;2702;51.014;7.170;2022-12-05T17:53:37;24.85;;;11.35;;
5357;SDS011;2702;51.014;7.170;2022-12-05T17:56:03;38.38;;;12.30;;
5357;SDS011;2702;51.014;7.170;2022-12-05T17:58:30;16.98;;;10.48;;
5357;SDS011;2702;51.014;7.170;2022-12-05T18:00:56;16.65;;;10.10;;
5357;SDS011;2702;51.014;7.170;2022-12-05T18:03:22;37.65;;;12.80;;
5357;SDS011;2702;51.014;7.170;2022-12-05T18:05:48;12.67;;;8.73;;
5357;SDS011;2702;51.014;7.170;2022-12-05T18:08:14;12.63;;;10.50;;
5357;SDS011;2702;51.014;7.170;2022-12-05T18:10:41;21.70;;;12.45;;
5357;SDS011;2702;51.014;7.170;2022-12-05T18:13:08;23.92;;;11.73;;
5357;SDS011;2702;51.014;7.170;2022-12-05T18:15:35;14.00;;;11.13;;
5357;SDS011;2702;51.014;7.170;2022-12-05T18:18:01;22.13;;;11.07;;
5357;SDS011;2702;51.014;7.170;2022-12-05T18:20:31;10.85;;;9.75;;
5357;SDS011;2702;51.014;7.170;2022-12-05T18:22:58;36.03;;;13.32;;
5357;SDS011;2702;51.014;7.170;2022-12-05T18:25:24;10.47;;;9.37;;